createdAt,value
2023-04-17T00:02:18.517Z,2.53
2023-04-17T00:04:49.795Z,4.75
2023-04-17T00:07:23.730Z,3.90
2023-04-17T00:09:53.769Z,6.72
2023-04-17T00:12:23.648Z,1.67
2023-04-17T00:14:53.639Z,5.82
2023-04-17T00:17:23.659Z,3.03
2023-04-17T00:19:53.962Z,4.43
2023-04-17T00:22:23.989Z,6.75
2023-04-17T00:24:53.983Z,3.53
2023-04-17T00:27:24.957Z,1.52
2023-04-17T00:29:54.954Z,3.03
2023-04-17T00:32:25.677Z,2.03
2023-04-17T00:34:55.997Z,1.85
2023-04-17T00:37:26.193Z,3.45
2023-04-17T00:39:56.183Z,6.10
2023-04-17T00:42:26.191Z,1.85
2023-04-17T00:44:56.977Z,2.22
2023-04-17T00:47:27.561Z,3.08
2023-04-17T00:49:57.802Z,5.80
2023-04-17T00:52:31.519Z,4.07
2023-04-17T00:55:01.761Z,3.40
2023-04-17T00:57:31.931Z,3.47
2023-04-17T01:00:02.188Z,2.80
2023-04-17T01:02:32.645Z,5.15
2023-04-17T01:05:02.775Z,4.82
2023-04-17T01:07:33.065Z,3.40
2023-04-17T01:10:03.528Z,6.03
2023-04-17T01:12:33.957Z,4.97
2023-04-17T01:15:06.181Z,3.83
2023-04-17T01:17:36.482Z,6.05
2023-04-17T01:20:12.952Z,7.60
2023-04-17T01:22:43.014Z,10.25
2023-04-17T01:25:12.923Z,6.18
2023-04-17T01:27:43.018Z,6.45
2023-04-17T01:30:13.439Z,7.82
2023-04-17T01:32:54.912Z,5.93
2023-04-17T01:35:25.121Z,5.35
2023-04-17T01:37:55.192Z,8.63
2023-04-17T01:40:25.236Z,6.43
2023-04-17T01:42:55.361Z,6.78
2023-04-17T01:45:25.340Z,7.10
2023-04-17T01:47:55.409Z,5.63
2023-04-17T01:50:25.636Z,5.75
2023-04-17T01:52:55.652Z,5.80
2023-04-17T01:55:25.467Z,6.20
2023-04-17T01:57:55.508Z,7.53
2023-04-17T02:00:25.697Z,9.50
2023-04-17T02:02:56.505Z,7.57
2023-04-17T02:05:26.858Z,6.38
2023-04-17T02:07:56.948Z,7.20
2023-04-17T02:10:28.918Z,5.45
2023-04-17T02:13:00.754Z,6.85
2023-04-17T02:15:30.765Z,8.15
2023-04-17T02:18:02.005Z,6.82
2023-04-17T02:20:32.096Z,5.38
2023-04-17T02:23:02.843Z,10.90
2023-04-17T02:25:34.889Z,7.85
2023-04-17T02:28:07.505Z,6.82
2023-04-17T02:30:37.522Z,7.35
2023-04-17T02:33:08.633Z,6.15
2023-04-17T02:35:38.890Z,5.75
2023-04-17T02:38:09.240Z,5.78
2023-04-17T02:40:40.094Z,9.48
2023-04-17T02:43:15.219Z,7.57
2023-04-17T02:45:45.226Z,6.70
2023-04-17T02:48:16.602Z,7.07
2023-04-17T02:50:46.620Z,7.00
2023-04-17T02:53:20.394Z,6.97
2023-04-17T02:55:51.703Z,8.07
2023-04-17T02:58:25.721Z,9.23
2023-04-17T03:01:02.688Z,8.18
2023-04-17T03:03:36.623Z,8.43
2023-04-17T03:06:11.114Z,9.27
2023-04-17T03:08:41.134Z,7.25
2023-04-17T03:11:11.648Z,5.93
2023-04-17T03:13:41.940Z,6.68
2023-04-17T03:16:12.213Z,5.55
2023-04-17T03:18:43.058Z,7.75
2023-04-17T03:21:13.249Z,8.63
2023-04-17T03:23:43.311Z,5.80
2023-04-17T03:26:13.469Z,8.50
2023-04-17T03:28:44.404Z,8.52
2023-04-17T03:31:14.536Z,6.25
2023-04-17T03:33:44.728Z,6.20
2023-04-17T03:36:14.690Z,8.43
2023-04-17T03:38:45.785Z,8.23
2023-04-17T03:41:18.702Z,5.18
2023-04-17T03:43:48.794Z,7.95
2023-04-17T03:46:19.888Z,6.38
2023-04-17T03:48:49.976Z,5.82
2023-04-17T03:51:20.252Z,13.43
2023-04-17T03:53:52.069Z,6.95
2023-04-17T03:56:23.015Z,5.10
2023-04-17T03:58:53.101Z,7.72
2023-04-17T04:01:23.536Z,11.40
2023-04-17T04:04:07.390Z,6.57
2023-04-17T04:06:39.753Z,8.75
2023-04-17T04:09:12.023Z,6.72
2023-04-17T04:11:42.367Z,6.82
2023-04-17T04:14:12.232Z,7.63
2023-04-17T04:16:42.672Z,5.18
2023-04-17T04:19:14.851Z,7.00
2023-04-17T04:21:46.675Z,5.53
2023-04-17T04:24:17.899Z,8.40
2023-04-17T04:26:51.098Z,8.80
2023-04-17T04:29:26.737Z,8.52
2023-04-17T04:32:02.328Z,8.05
2023-04-17T04:34:38.526Z,8.23
2023-04-17T04:37:09.276Z,7.75
2023-04-17T04:39:44.284Z,8.38
2023-04-17T04:42:23.352Z,9.13
2023-04-17T04:45:17.235Z,7.22
2023-04-17T04:47:48.163Z,5.28
2023-04-17T04:50:18.817Z,5.00
2023-04-17T04:52:49.167Z,4.18
2023-04-17T04:55:49.518Z,6.07
2023-04-17T04:58:20.450Z,7.90
2023-04-17T05:00:52.304Z,4.70
2023-04-17T05:03:30.487Z,7.95
2023-04-17T05:06:02.842Z,5.40
2023-04-17T05:08:43.894Z,7.60
2023-04-17T05:11:17.004Z,6.60
2023-04-17T05:13:47.091Z,3.58
2023-04-17T05:16:22.568Z,4.10
2023-04-17T05:18:52.763Z,10.27
2023-04-17T05:21:31.251Z,3.97
2023-04-17T05:24:04.360Z,3.53
2023-04-17T05:26:35.733Z,3.10
2023-04-17T05:29:07.679Z,3.05
2023-04-17T05:31:39.157Z,2.85
2023-04-17T05:34:18.054Z,2.65
2023-04-17T05:36:48.336Z,5.05
2023-04-17T05:39:19.284Z,1.40
2023-04-17T05:41:49.291Z,1.13
2023-04-17T05:44:20.879Z,1.50
2023-04-17T05:46:50.869Z,3.42
2023-04-17T05:49:21.652Z,2.17
2023-04-17T05:51:51.660Z,2.60
2023-04-17T05:54:21.658Z,3.75
2023-04-17T05:56:53.134Z,2.30
2023-04-17T05:59:24.123Z,1.70
2023-04-17T06:01:55.495Z,2.30
2023-04-17T06:04:25.783Z,1.05
2023-04-17T06:06:56.099Z,1.85
2023-04-17T06:09:26.174Z,1.38
2023-04-17T06:11:56.831Z,0.85
2023-04-17T06:14:27.006Z,1.10
2023-04-17T06:16:57.301Z,1.20
2023-04-17T06:19:27.359Z,1.27
2023-04-17T06:21:58.246Z,1.27
2023-04-17T06:24:28.746Z,2.50
2023-04-17T06:26:59.157Z,0.80
2023-04-17T06:29:29.305Z,4.03
2023-04-17T06:32:01.841Z,1.90
2023-04-17T06:34:32.012Z,1.35
2023-04-17T06:37:02.815Z,3.05
2023-04-17T06:39:33.464Z,1.10
2023-04-17T06:42:04.295Z,0.68
2023-04-17T06:44:39.722Z,0.70
2023-04-17T06:47:15.398Z,1.20
2023-04-17T06:49:45.385Z,1.20
2023-04-17T06:52:15.520Z,1.38
2023-04-17T06:54:45.451Z,1.30
2023-04-17T06:57:15.468Z,3.88
2023-04-17T06:59:45.862Z,1.40
2023-04-17T07:02:16.235Z,0.88
2023-04-17T07:04:46.828Z,1.60
2023-04-17T07:07:17.024Z,0.85
2023-04-17T07:09:48.891Z,4.47
2023-04-17T07:12:19.087Z,1.67
2023-04-17T07:14:49.054Z,0.98
2023-04-17T07:17:19.127Z,0.52
2023-04-17T07:19:50.261Z,1.02
2023-04-17T07:22:20.280Z,1.27
2023-04-17T07:24:50.473Z,0.50
2023-04-17T07:27:20.483Z,9.65
2023-04-17T07:29:55.503Z,0.70
2023-04-17T07:32:25.932Z,0.75
2023-04-17T07:34:55.928Z,2.65
2023-04-17T07:37:25.771Z,0.70
2023-04-17T07:39:58.847Z,1.35
2023-04-17T07:42:30.393Z,1.05
2023-04-17T07:45:00.534Z,0.65
2023-04-17T07:47:32.163Z,1.83
2023-04-17T07:50:02.372Z,1.55
2023-04-17T07:52:32.887Z,7.88
2023-04-17T07:55:02.812Z,4.47
2023-04-17T07:57:34.108Z,1.13
2023-04-17T08:00:06.190Z,0.73
2023-04-17T08:02:43.103Z,0.75
2023-04-17T08:05:13.877Z,3.10
2023-04-17T08:07:44.558Z,1.70
2023-04-17T08:10:14.707Z,1.77
2023-04-17T08:12:44.852Z,1.15
2023-04-17T08:15:14.848Z,1.00
2023-04-17T08:17:46.007Z,0.32
2023-04-17T08:20:16.139Z,0.90
2023-04-17T08:22:47.875Z,1.55
2023-04-17T08:25:18.931Z,0.73
2023-04-17T08:27:48.939Z,0.75
2023-04-17T08:30:19.408Z,2.60
2023-04-17T08:32:51.868Z,2.72
2023-04-17T08:35:22.055Z,0.82
2023-04-17T08:37:52.619Z,1.38
2023-04-17T08:40:24.940Z,1.13
2023-04-17T08:42:55.845Z,0.88
2023-04-17T08:45:26.221Z,1.60
2023-04-17T08:47:56.630Z,1.05
2023-04-17T08:50:26.808Z,2.67
2023-04-17T08:52:56.612Z,1.40
2023-04-17T08:55:26.712Z,2.40
2023-04-17T08:58:05.053Z,2.67
2023-04-17T09:00:42.863Z,2.17
2023-04-17T09:03:14.771Z,2.30
2023-04-17T09:05:49.582Z,2.97
2023-04-17T09:08:26.983Z,1.70
2023-04-17T09:10:58.187Z,2.72
2023-04-17T09:13:30.063Z,1.45
2023-04-17T09:16:11.462Z,1.42
2023-04-17T09:18:47.297Z,0.85
2023-04-17T09:21:22.331Z,1.83
2023-04-17T09:23:57.681Z,0.75
2023-04-17T09:26:29.295Z,1.30
2023-04-17T09:29:05.221Z,4.80
2023-04-17T09:31:38.920Z,0.80
2023-04-17T09:34:13.094Z,0.50
2023-04-17T09:36:44.621Z,1.05
2023-04-17T09:39:25.292Z,2.65
2023-04-17T09:42:07.352Z,0.63
2023-04-17T09:44:39.130Z,1.48
2023-04-17T09:47:11.356Z,3.47
2023-04-17T09:49:51.253Z,4.28
2023-04-17T09:52:24.581Z,0.88
2023-04-17T09:54:56.345Z,1.17
2023-04-17T09:57:26.425Z,1.08
2023-04-17T10:00:00.750Z,2.78
2023-04-17T10:02:34.870Z,1.95
2023-04-17T10:05:09.914Z,1.35
2023-04-17T10:07:41.233Z,2.28
2023-04-17T10:10:12.609Z,1.25
2023-04-17T10:12:42.940Z,2.28
2023-04-17T10:15:16.771Z,1.73
2023-04-17T10:17:47.731Z,2.35
2023-04-17T10:20:26.868Z,2.15
2023-04-17T10:22:57.419Z,1.70
2023-04-17T10:25:32.436Z,1.98
2023-04-17T10:28:04.029Z,2.67
2023-04-17T10:31:06.162Z,3.15
2023-04-17T10:33:53.072Z,4.40
2023-04-17T10:36:41.628Z,3.22
2023-04-17T10:39:19.476Z,1.27
2023-04-17T10:42:06.938Z,1.88
2023-04-17T10:44:40.468Z,7.22
2023-04-17T10:47:19.643Z,2.10
2023-04-17T10:49:56.056Z,2.92
2023-04-17T10:52:35.779Z,2.00
2023-04-17T10:55:10.740Z,2.88
2023-04-17T10:58:06.586Z,1.83
2023-04-17T11:00:51.963Z,2.42
2023-04-17T11:03:25.183Z,3.72
2023-04-17T11:05:56.179Z,2.75
2023-04-17T11:08:26.445Z,1.40
2023-04-17T11:10:59.406Z,1.90
2023-04-17T11:13:34.977Z,2.45
2023-04-17T11:16:08.939Z,2.67
2023-04-17T11:18:39.907Z,3.65
2023-04-17T11:21:15.493Z,9.25
2023-04-17T11:23:53.622Z,2.58
2023-04-17T11:26:24.720Z,2.25
2023-04-17T11:28:54.859Z,2.72
2023-04-17T11:31:25.974Z,2.25
2023-04-17T11:33:56.336Z,3.83
2023-04-17T11:36:27.440Z,2.63
2023-04-17T11:38:59.092Z,3.95
2023-04-17T11:41:43.882Z,5.22
2023-04-17T11:46:55.080Z,4.53
2023-04-17T11:49:29.770Z,3.53
2023-04-17T11:52:04.237Z,6.05
2023-04-17T11:54:39.916Z,4.60
2023-04-17T11:57:16.421Z,4.63
2023-04-17T11:59:47.318Z,4.22
2023-04-17T12:02:17.888Z,5.70
2023-04-17T12:04:48.416Z,4.93
2023-04-17T12:07:28.056Z,6.50
2023-04-17T12:09:58.903Z,4.57
2023-04-17T12:12:31.245Z,5.03
2023-04-17T12:15:02.026Z,5.25
2023-04-17T12:17:32.107Z,6.20
2023-04-17T12:20:05.245Z,5.32
2023-04-17T12:22:36.152Z,5.88
2023-04-17T12:25:06.998Z,5.97
2023-04-17T12:27:40.049Z,4.93
2023-04-17T12:30:13.768Z,5.50
2023-04-17T12:32:49.663Z,5.60
2023-04-17T12:35:21.500Z,3.72
2023-04-17T12:37:55.000Z,5.80
2023-04-17T12:40:28.095Z,5.95
2023-04-17T12:42:58.081Z,8.70
2023-04-17T12:45:29.254Z,6.85
2023-04-17T12:47:59.292Z,5.78
2023-04-17T12:50:29.494Z,8.57
2023-04-17T12:52:59.680Z,4.63
2023-04-17T12:55:29.726Z,6.45
2023-04-17T12:58:00.412Z,9.00
2023-04-17T13:00:30.465Z,7.93
2023-04-17T13:03:01.132Z,7.40
2023-04-17T13:05:32.417Z,6.75
2023-04-17T13:08:02.620Z,6.18
2023-04-17T13:10:32.793Z,6.75
2023-04-17T13:13:03.460Z,6.78
2023-04-17T13:15:34.299Z,7.60
2023-04-17T13:18:04.930Z,6.03
2023-04-17T13:20:35.134Z,6.72
2023-04-17T13:23:05.129Z,9.18
2023-04-17T13:25:35.144Z,7.75
2023-04-17T13:28:05.367Z,8.68
2023-04-17T13:30:39.059Z,6.30
2023-04-17T13:33:09.332Z,7.00
2023-04-17T13:35:39.397Z,5.43
2023-04-17T13:38:09.425Z,7.75
2023-04-17T13:40:39.754Z,7.07
2023-04-17T13:43:11.261Z,6.78
2023-04-17T13:45:41.748Z,6.15
2023-04-17T13:48:12.769Z,6.32
2023-04-17T13:50:43.994Z,6.03
2023-04-17T13:53:14.677Z,6.03
2023-04-17T13:55:44.839Z,7.15
2023-04-17T13:58:14.932Z,7.35
2023-04-17T14:00:45.135Z,6.78
2023-04-17T14:03:15.398Z,7.10
2023-04-17T14:05:45.839Z,7.40
2023-04-17T14:08:15.882Z,9.00
2023-04-17T14:10:46.179Z,8.88
2023-04-17T14:13:16.194Z,7.75
2023-04-17T14:15:48.626Z,6.20
2023-04-17T14:18:18.763Z,6.32
2023-04-17T14:20:49.136Z,5.20
2023-04-17T14:23:19.163Z,6.38
2023-04-17T14:25:49.695Z,6.57
2023-04-17T14:28:20.093Z,6.50
2023-04-17T14:30:50.539Z,4.97
2023-04-17T14:33:20.584Z,5.32
2023-04-17T14:35:50.644Z,6.35
2023-04-17T14:38:22.256Z,6.03
2023-04-17T14:40:52.823Z,7.63
2023-04-17T14:43:22.787Z,5.93
2023-04-17T14:45:52.901Z,6.15
2023-04-17T14:48:24.770Z,5.78
2023-04-17T14:50:54.795Z,6.80
2023-04-17T14:53:24.781Z,3.35
2023-04-17T14:55:54.810Z,2.15
2023-04-17T14:58:24.837Z,1.15
2023-04-17T15:00:54.893Z,2.05
2023-04-17T15:03:25.189Z,1.55
2023-04-17T15:05:57.868Z,1.20
2023-04-17T15:08:27.898Z,3.65
2023-04-17T15:10:58.913Z,1.08
2023-04-17T15:13:28.995Z,1.70
2023-04-17T15:15:59.301Z,1.92
2023-04-17T15:18:29.370Z,0.85
2023-04-17T15:20:59.919Z,1.63
2023-04-17T15:23:31.240Z,1.05
2023-04-17T15:26:02.509Z,2.42
2023-04-17T15:28:34.213Z,0.88
2023-04-17T15:31:04.324Z,0.68
2023-04-17T15:33:35.273Z,1.40
2023-04-17T15:36:05.396Z,2.40
2023-04-17T15:38:36.599Z,1.05
2023-04-17T15:41:07.465Z,1.70
2023-04-17T15:43:38.482Z,0.95
2023-04-17T15:46:08.634Z,1.13
2023-04-17T15:48:38.769Z,1.00
2023-04-17T15:51:08.861Z,1.85
2023-04-17T15:53:38.834Z,1.60
2023-04-17T15:56:10.638Z,1.75
2023-04-17T15:58:40.907Z,1.30
2023-04-17T16:01:12.027Z,1.98
2023-04-17T16:03:44.558Z,1.50
2023-04-17T16:06:14.989Z,2.60
2023-04-17T16:08:47.634Z,1.75
2023-04-17T16:11:17.831Z,3.35
2023-04-17T16:13:48.734Z,5.55
2023-04-17T16:16:19.009Z,2.20
2023-04-17T16:18:49.095Z,3.60
2023-04-17T16:21:19.126Z,2.28
2023-04-17T16:23:50.546Z,3.30
2023-04-17T16:26:21.531Z,2.58
2023-04-17T16:28:51.552Z,2.63
2023-04-17T16:31:22.475Z,2.75
2023-04-17T16:33:54.037Z,2.63
2023-04-17T16:36:24.251Z,3.88
2023-04-17T16:38:54.214Z,2.30
2023-04-17T16:41:24.535Z,2.55
2023-04-17T16:43:54.807Z,1.55
2023-04-17T16:46:35.452Z,2.30
2023-04-17T16:49:15.668Z,2.22
2023-04-17T16:51:45.502Z,2.83
2023-04-17T16:54:15.387Z,1.83
2023-04-17T16:56:46.350Z,1.83
2023-04-17T16:59:16.382Z,1.52
2023-04-17T17:01:48.223Z,1.17
2023-04-17T17:04:18.271Z,1.35
2023-04-17T17:06:48.450Z,1.45
2023-04-17T17:09:18.516Z,1.60
2023-04-17T17:11:48.950Z,1.42
2023-04-17T17:14:19.091Z,1.75
2023-04-17T17:16:48.985Z,1.13
2023-04-17T17:19:19.065Z,2.50
2023-04-17T17:21:49.303Z,2.25
2023-04-17T17:24:19.384Z,1.48
2023-04-17T17:26:49.463Z,1.20
2023-04-17T17:29:19.804Z,1.58
2023-04-17T17:31:49.802Z,2.72
2023-04-17T17:34:26.076Z,3.17
2023-04-17T17:36:57.150Z,3.03
2023-04-17T17:39:27.385Z,2.83
2023-04-17T17:41:58.462Z,4.32
2023-04-17T17:44:28.699Z,3.45
2023-04-17T17:46:58.772Z,4.28
2023-04-17T17:49:28.765Z,1.92
2023-04-17T17:51:58.654Z,3.65
2023-04-17T17:54:28.525Z,2.25
2023-04-17T17:56:58.574Z,3.92
2023-04-17T17:59:28.842Z,4.18
2023-04-17T18:01:58.988Z,3.88
2023-04-17T18:04:29.540Z,4.20
2023-04-17T18:06:59.639Z,2.35
2023-04-17T18:09:29.698Z,2.97
2023-04-17T18:11:59.751Z,3.08
2023-04-17T18:14:29.799Z,5.20
2023-04-17T18:16:59.916Z,3.00
2023-04-17T18:19:29.980Z,3.30
2023-04-17T18:21:59.903Z,3.00
2023-04-17T18:24:29.926Z,3.05
2023-04-17T18:27:00.808Z,3.38
2023-04-17T18:29:31.757Z,2.90
2023-04-17T18:32:01.833Z,2.92
2023-04-17T18:34:31.910Z,3.65
2023-04-17T18:37:02.026Z,3.15
2023-04-17T18:39:32.522Z,2.75
2023-04-17T18:42:02.966Z,2.95
2023-04-17T18:44:33.066Z,2.33
2023-04-17T18:47:03.319Z,3.22
2023-04-17T18:49:34.387Z,4.43
2023-04-17T18:52:04.861Z,3.50
2023-04-17T18:54:35.329Z,3.53
2023-04-17T18:57:05.678Z,4.68
2023-04-17T18:59:35.839Z,4.68
2023-04-17T19:02:05.924Z,4.05
2023-04-17T19:04:36.154Z,5.03
2023-04-17T19:07:06.221Z,5.28
2023-04-17T19:09:37.669Z,4.45
2023-04-17T19:12:07.794Z,5.32
2023-04-17T19:14:37.957Z,3.88
2023-04-17T19:17:08.059Z,3.78
2023-04-17T19:19:38.247Z,4.05
2023-04-17T19:22:08.443Z,3.63
2023-04-17T19:24:38.606Z,4.28
2023-04-17T19:27:08.653Z,4.70
2023-04-17T19:29:38.906Z,4.75
2023-04-17T19:32:09.033Z,4.20
2023-04-17T19:34:39.269Z,4.65
2023-04-17T19:37:09.540Z,6.38
2023-04-17T19:39:39.560Z,4.15
2023-04-17T19:42:09.613Z,4.85
2023-04-17T19:44:39.777Z,4.68
2023-04-17T19:47:09.911Z,5.07
2023-04-17T19:49:40.102Z,5.22
2023-04-17T19:52:13.706Z,7.68
2023-04-17T19:54:46.523Z,4.97
2023-04-17T19:57:16.804Z,7.85
2023-04-17T19:59:46.863Z,4.88
2023-04-17T20:02:19.465Z,3.95
2023-04-17T20:04:49.803Z,5.55
2023-04-17T20:07:19.878Z,4.75
2023-04-17T20:09:49.910Z,3.58
2023-04-17T20:12:21.898Z,4.60
2023-04-17T20:14:53.746Z,3.53
2023-04-17T20:17:24.012Z,4.95
2023-04-17T20:19:54.074Z,5.20
2023-04-17T20:22:24.581Z,4.10
2023-04-17T20:24:54.813Z,4.85
2023-04-17T20:27:25.760Z,3.90
2023-04-17T20:29:55.986Z,5.45
2023-04-17T20:32:26.192Z,4.43
2023-04-17T20:34:56.261Z,4.45
2023-04-17T20:37:26.246Z,3.40
2023-04-17T20:39:56.459Z,5.80
2023-04-17T20:42:27.520Z,3.60
2023-04-17T20:44:57.703Z,5.55
2023-04-17T20:47:27.833Z,4.38
2023-04-17T20:49:57.887Z,4.88
2023-04-17T20:52:28.132Z,3.97
2023-04-17T20:54:58.254Z,4.78
2023-04-17T20:57:30.025Z,4.70
2023-04-17T21:00:00.324Z,5.47
2023-04-17T21:02:32.599Z,5.00
2023-04-17T21:05:03.516Z,4.85
2023-04-17T21:07:33.598Z,4.90
2023-04-17T21:10:04.218Z,5.53
2023-04-17T21:12:36.228Z,5.43
2023-04-17T21:15:06.829Z,6.88
2023-04-17T21:17:37.928Z,6.90
2023-04-17T21:20:08.664Z,4.13
2023-04-17T21:22:38.640Z,8.63
2023-04-17T21:25:09.512Z,3.72
2023-04-17T21:27:39.567Z,4.40
2023-04-17T21:30:11.708Z,6.50
2023-04-17T21:32:43.293Z,6.47
2023-04-17T21:35:13.549Z,4.13
2023-04-17T21:37:43.438Z,5.13
2023-04-17T21:40:13.883Z,5.20
2023-04-17T21:42:44.114Z,5.22
2023-04-17T21:45:14.267Z,5.57
2023-04-17T21:47:44.398Z,4.63
2023-04-17T21:50:14.456Z,7.63
2023-04-17T21:52:44.319Z,5.18
2023-04-17T21:55:14.223Z,6.05
2023-04-17T21:57:44.369Z,5.53
2023-04-17T22:00:15.603Z,4.97
2023-04-17T22:02:45.850Z,6.47
2023-04-17T22:05:16.355Z,4.60
2023-04-17T22:07:54.404Z,4.50
2023-04-17T22:10:25.948Z,5.65
2023-04-17T22:12:56.667Z,6.90
2023-04-17T22:15:26.955Z,5.45
2023-04-17T22:17:56.999Z,5.70
2023-04-17T22:20:27.082Z,11.75
2023-04-17T22:22:57.250Z,6.63
2023-04-17T22:25:27.310Z,6.93
2023-04-17T22:27:57.400Z,9.77
2023-04-17T22:30:27.314Z,7.40
2023-04-17T22:32:58.478Z,5.45
2023-04-17T22:35:28.876Z,6.20
2023-04-17T22:37:59.472Z,5.88
2023-04-17T22:40:31.062Z,6.70
2023-04-17T22:43:01.377Z,5.80
2023-04-17T22:45:31.388Z,6.07
2023-04-17T22:48:01.549Z,12.70
2023-04-17T22:50:33.421Z,8.45
2023-04-17T22:53:03.455Z,6.78
2023-04-17T22:55:33.292Z,8.57
2023-04-17T22:58:04.758Z,6.82
2023-04-17T23:00:34.929Z,9.20
2023-04-17T23:03:05.196Z,5.95
2023-04-17T23:05:35.283Z,10.80
2023-04-17T23:08:05.340Z,6.75
2023-04-17T23:10:35.501Z,6.40
2023-04-17T23:13:05.605Z,7.22
2023-04-17T23:15:35.607Z,5.05
2023-04-17T23:18:06.825Z,6.50
2023-04-17T23:20:36.913Z,6.80
2023-04-17T23:23:07.400Z,6.63
2023-04-17T23:25:37.761Z,7.15
2023-04-17T23:28:07.819Z,6.78
2023-04-17T23:30:37.639Z,9.93
2023-04-17T23:33:07.591Z,6.07
2023-04-17T23:35:38.617Z,8.23
2023-04-17T23:38:08.836Z,6.38
2023-04-17T23:40:38.742Z,7.70
2023-04-17T23:43:08.959Z,6.25
2023-04-17T23:45:39.038Z,10.27
2023-04-17T23:48:09.118Z,5.65
2023-04-17T23:50:39.174Z,6.50
2023-04-17T23:53:09.232Z,8.73
2023-04-17T23:55:40.369Z,6.57
2023-04-17T23:58:10.842Z,8.80
